Abovyan, Armenia
Current Conditions -  °F | °C
As of 11:00 AM on Sunday 26 Oct 2014 (Local Time) from UDYZ Reporting Station
Broken Clouds Broken Clouds  
Wind Chill: 14°   Ceiling: 10000
Heat Index: 14°   Visibility: 6mi
Dew Point: 10°   Wind: 4mph
Humidity: 77%   Direction: 170°S
Pressure: 30.12"   Gusts: NA
Location:  40.27°N, 44.62°E
Report Text: UDYZ 260600Z 17002MPS 9999 FEW046 BKN100 14/10 Q1020 R09/0///70NOSIG
Loading
Personal Weather Stations






























Interactive Weather Map
Tropical Storm Tracking
New forecast layout! Learn more

10-Day Weather Forecast

Advertisements
Track Severe Weather on mobile